createdAt,value
2018-06-03T00:00:11.929Z,16.10
2018-06-03T00:02:40.555Z,16.10
2018-06-03T00:05:09.243Z,16.00
2018-06-03T00:07:37.922Z,16.00
2018-06-03T00:10:06.619Z,16.10
2018-06-03T00:12:35.282Z,16.00
2018-06-03T00:15:04.006Z,16.00
2018-06-03T00:17:32.679Z,15.90
2018-06-03T00:20:01.309Z,15.90
2018-06-03T00:22:32.093Z,15.90
2018-06-03T00:25:00.795Z,15.90
2018-06-03T00:29:57.797Z,15.90
2018-06-03T00:32:26.446Z,15.80
2018-06-03T00:34:55.126Z,15.70
2018-06-03T00:37:23.762Z,15.70
2018-06-03T00:39:52.407Z,15.70
2018-06-03T00:42:21.090Z,15.60
2018-06-03T00:44:49.731Z,15.60
2018-06-03T00:47:18.423Z,15.60
2018-06-03T00:49:47.086Z,15.60
2018-06-03T00:52:15.755Z,15.60
2018-06-03T00:54:44.437Z,15.60
2018-06-03T00:57:13.081Z,15.60
2018-06-03T00:59:41.771Z,15.50
2018-06-03T01:02:10.435Z,15.50
2018-06-03T01:04:39.073Z,15.50
2018-06-03T01:07:07.777Z,15.50
2018-06-03T01:09:36.458Z,15.40
2018-06-03T01:12:05.182Z,15.40
2018-06-03T01:14:33.816Z,15.40
2018-06-03T01:17:02.467Z,15.40
2018-06-03T01:19:31.157Z,15.40
2018-06-03T01:24:28.137Z,15.40
2018-06-03T01:26:56.809Z,15.30
2018-06-03T01:29:25.485Z,15.40
2018-06-03T01:31:54.207Z,15.40
2018-06-03T01:34:22.870Z,15.30
2018-06-03T01:36:51.584Z,15.30
2018-06-03T01:42:13.774Z,15.10
2018-06-03T01:44:42.434Z,15.10
2018-06-03T01:47:11.076Z,15.10
2018-06-03T01:52:08.006Z,15.00
2018-06-03T01:54:36.673Z,15.10
2018-06-03T01:57:05.600Z,15.10
2018-06-03T01:59:34.244Z,15.00
2018-06-03T02:02:02.921Z,15.00
2018-06-03T02:04:31.579Z,15.00
2018-06-03T02:07:00.249Z,15.00
2018-06-03T02:09:28.872Z,15.00
2018-06-03T02:11:57.524Z,14.90
2018-06-03T02:14:26.209Z,14.90
2018-06-03T02:19:23.153Z,14.70
2018-06-03T02:21:51.833Z,14.70
2018-06-03T02:24:20.478Z,14.70
2018-06-03T02:26:49.140Z,14.70
2018-06-03T02:29:17.778Z,14.60
2018-06-03T02:31:46.519Z,14.60
2018-06-03T02:34:15.157Z,14.60
2018-06-03T02:36:43.782Z,14.60
2018-06-03T02:39:12.803Z,14.60
2018-06-03T02:41:41.453Z,14.60
2018-06-03T02:44:10.124Z,14.60
2018-06-03T02:46:38.822Z,14.60
2018-06-03T02:49:07.492Z,14.60
2018-06-03T02:51:36.146Z,14.60
2018-06-03T02:54:04.809Z,14.60
2018-06-03T02:56:33.475Z,14.60
2018-06-03T02:59:02.134Z,14.70
2018-06-03T03:01:30.817Z,14.70
2018-06-03T03:03:59.450Z,14.70
2018-06-03T03:06:28.097Z,14.80
2018-06-03T03:08:56.736Z,14.80
2018-06-03T03:11:25.401Z,14.90
2018-06-03T03:13:54.049Z,14.90
2018-06-03T03:16:22.755Z,14.90
2018-06-03T03:18:51.385Z,15.00
2018-06-03T03:21:20.037Z,15.00
2018-06-03T03:23:48.695Z,15.00
2018-06-03T03:26:17.345Z,15.10
2018-06-03T03:28:46.006Z,15.10
2018-06-03T03:31:14.641Z,15.10
2018-06-03T03:33:43.301Z,15.10
2018-06-03T03:36:11.944Z,15.10
2018-06-03T03:38:40.571Z,15.00
2018-06-03T03:41:09.235Z,15.00
2018-06-03T03:43:51.309Z,15.00
2018-06-03T03:46:19.979Z,14.90
2018-06-03T03:48:48.614Z,14.80
2018-06-03T03:51:31.714Z,14.70
2018-06-03T03:54:00.363Z,14.70
2018-06-03T03:56:28.995Z,14.70
2018-06-03T03:58:57.664Z,14.70
2018-06-03T04:01:26.305Z,14.60
2018-06-03T04:09:46.293Z,14.70
2018-06-03T04:12:14.949Z,14.70
2018-06-03T04:14:43.590Z,14.70
2018-06-03T04:17:12.269Z,14.80
2018-06-03T04:19:40.923Z,14.80
2018-06-03T04:22:09.622Z,14.80
2018-06-03T04:24:38.275Z,14.90
2018-06-03T04:27:06.978Z,14.90
2018-06-03T04:29:35.604Z,15.00
2018-06-03T04:32:04.260Z,15.10
2018-06-03T04:34:32.936Z,15.20
2018-06-03T04:37:01.598Z,15.30
2018-06-03T04:39:30.272Z,15.50
2018-06-03T04:41:58.914Z,15.50
2018-06-03T04:44:27.586Z,15.60
2018-06-03T04:46:56.251Z,15.60
2018-06-03T04:49:24.932Z,15.60
2018-06-03T04:51:53.598Z,15.70
2018-06-03T04:54:22.260Z,15.80
2018-06-03T04:56:50.941Z,15.80
2018-06-03T04:59:19.576Z,15.90
2018-06-03T05:01:48.234Z,15.90
2018-06-03T05:04:16.877Z,16.00
2018-06-03T05:06:45.528Z,16.00
2018-06-03T05:09:14.219Z,16.10
2018-06-03T05:11:42.909Z,16.20
2018-06-03T05:14:11.576Z,16.20
2018-06-03T05:16:40.224Z,16.30
2018-06-03T05:19:08.897Z,16.30
2018-06-03T05:21:37.576Z,16.50
2018-06-03T05:24:06.241Z,16.60
2018-06-03T05:26:35.074Z,16.70
2018-06-03T05:29:03.837Z,16.70
2018-06-03T05:31:32.580Z,16.80
2018-06-03T05:34:01.284Z,16.90
2018-06-03T05:36:30.045Z,17.20
2018-06-03T05:38:58.758Z,18.00
2018-06-03T05:41:27.406Z,18.90
2018-06-03T05:43:56.046Z,19.40
2018-06-03T05:46:24.937Z,20.20
2018-06-03T05:48:53.585Z,20.80
2018-06-03T05:51:22.225Z,21.40
2018-06-03T05:53:54.343Z,21.40
2018-06-03T05:56:23.024Z,21.30
2018-06-03T05:58:51.701Z,21.60
2018-06-03T06:01:20.320Z,21.80
2018-06-03T06:03:48.968Z,22.10
2018-06-03T06:06:17.681Z,22.60
2018-06-03T06:08:46.362Z,22.90
2018-06-03T06:11:15.059Z,23.00
2018-06-03T06:13:43.700Z,23.20
2018-06-03T06:16:12.394Z,23.30
2018-06-03T06:18:41.062Z,23.60
2018-06-03T06:21:09.741Z,23.90
2018-06-03T06:23:38.493Z,24.30
2018-06-03T06:26:07.153Z,24.40
2018-06-03T06:28:35.772Z,24.40
2018-06-03T06:31:04.455Z,24.40
2018-06-03T06:33:33.114Z,24.40
2018-06-03T06:36:01.804Z,24.70
2018-06-03T06:38:30.470Z,24.10
2018-06-03T06:40:59.131Z,22.90
2018-06-03T06:43:27.790Z,23.10
2018-06-03T06:46:18.691Z,23.50
2018-06-03T06:48:47.362Z,23.90
2018-06-03T06:51:16.017Z,23.80
2018-06-03T06:53:45.516Z,23.20
2018-06-03T06:56:14.218Z,22.50
2018-06-03T06:58:42.941Z,21.90
2018-06-03T07:01:11.631Z,21.50
2018-06-03T07:03:40.315Z,21.50
2018-06-03T07:06:08.977Z,21.30
2018-06-03T07:08:37.736Z,21.00
2018-06-03T07:13:34.677Z,21.40
2018-06-03T07:16:03.373Z,21.50
2018-06-03T07:18:32.040Z,21.50
2018-06-03T07:21:00.691Z,21.70
2018-06-03T07:23:29.331Z,21.80
2018-06-03T07:25:58.395Z,22.00
2018-06-03T07:28:27.053Z,21.90
2018-06-03T07:30:55.843Z,22.10
2018-06-03T07:33:24.518Z,22.00
2018-06-03T07:35:53.200Z,22.00
2018-06-03T07:38:22.057Z,22.10
2018-06-03T07:40:50.690Z,22.10
2018-06-03T07:43:19.343Z,22.20
2018-06-03T07:45:48.162Z,22.00
2018-06-03T07:48:17.299Z,21.90
2018-06-03T07:50:46.889Z,21.40
2018-06-03T07:53:15.758Z,21.50
2018-06-03T07:55:44.405Z,21.60
2018-06-03T07:58:13.146Z,21.40
2018-06-03T08:00:42.209Z,21.50
2018-06-03T08:03:10.921Z,21.50
2018-06-03T08:05:39.633Z,21.70
2018-06-03T08:08:08.296Z,22.00
2018-06-03T08:10:37.015Z,22.20
2018-06-03T08:13:05.714Z,22.40
2018-06-03T08:15:34.361Z,22.60
2018-06-03T08:18:03.020Z,22.70
2018-06-03T08:20:31.725Z,22.70
2018-06-03T08:23:00.345Z,22.70
2018-06-03T08:25:29.048Z,22.60
2018-06-03T08:27:57.689Z,22.40
2018-06-03T08:30:26.364Z,22.50
2018-06-03T08:32:54.999Z,22.60
2018-06-03T08:35:23.683Z,22.70
2018-06-03T08:37:52.329Z,22.90
2018-06-03T08:40:20.986Z,22.90
2018-06-03T08:42:49.629Z,22.90
2018-06-03T08:45:18.292Z,23.00
2018-06-03T08:47:46.950Z,22.80
2018-06-03T08:50:15.594Z,22.80
2018-06-03T08:52:44.267Z,22.80
2018-06-03T08:55:12.931Z,22.80
2018-06-03T08:57:41.613Z,22.90
2018-06-03T09:00:10.275Z,22.90
2018-06-03T09:02:38.928Z,23.00
2018-06-03T09:05:07.618Z,23.10
2018-06-03T09:07:36.274Z,23.10
2018-06-03T09:10:05.765Z,23.20
2018-06-03T09:12:34.451Z,23.30
2018-06-03T09:15:03.081Z,23.30
2018-06-03T09:17:31.737Z,23.30
2018-06-03T09:20:00.405Z,23.40
2018-06-03T09:22:29.095Z,23.30
2018-06-03T09:24:57.769Z,23.30
2018-06-03T09:30:19.041Z,23.40
2018-06-03T09:32:48.879Z,23.40
2018-06-03T09:35:17.556Z,23.20
2018-06-03T09:37:46.213Z,23.10
2018-06-03T09:40:14.854Z,23.10
2018-06-03T09:42:43.551Z,23.10
2018-06-03T09:45:12.194Z,23.30
2018-06-03T09:47:40.821Z,23.30
2018-06-03T09:50:09.576Z,23.20
2018-06-03T09:52:38.215Z,23.20
2018-06-03T09:55:06.934Z,23.30
2018-06-03T09:57:35.618Z,23.40
2018-06-03T10:00:04.551Z,23.50
2018-06-03T10:02:33.197Z,23.60
2018-06-03T10:05:01.855Z,23.70
2018-06-03T10:07:30.543Z,23.80
2018-06-03T10:09:59.215Z,23.90
2018-06-03T10:12:27.898Z,24.10
2018-06-03T10:14:56.571Z,24.10
2018-06-03T10:17:25.323Z,24.00
2018-06-03T10:19:53.985Z,23.90
2018-06-03T10:22:22.644Z,23.90
2018-06-03T10:27:19.703Z,24.30
2018-06-03T10:32:41.091Z,24.80
2018-06-03T10:35:09.817Z,24.90
2018-06-03T10:37:38.432Z,24.90
2018-06-03T10:42:35.402Z,25.00
2018-06-03T10:45:04.178Z,25.10
2018-06-03T10:47:32.885Z,25.10
2018-06-03T10:50:01.556Z,25.10
2018-06-03T10:54:58.737Z,25.00
2018-06-03T10:57:37.429Z,25.20
2018-06-03T11:00:06.417Z,25.30
2018-06-03T11:05:29.446Z,25.60
2018-06-03T11:07:58.208Z,25.50
2018-06-03T11:10:27.043Z,25.70
2018-06-03T11:12:55.795Z,25.90
2018-06-03T11:15:29.305Z,25.80
2018-06-03T11:18:08.380Z,25.60
2018-06-03T11:20:37.438Z,25.50
2018-06-03T11:23:06.161Z,25.20
2018-06-03T11:25:42.419Z,25.00
2018-06-03T11:28:11.062Z,24.70
2018-06-03T11:30:39.841Z,24.90
2018-06-03T11:33:08.518Z,25.10
2018-06-03T11:35:37.231Z,25.20
2018-06-03T11:38:05.925Z,25.40
2018-06-03T11:40:34.629Z,25.40
2018-06-03T11:43:03.273Z,25.70
2018-06-03T11:45:31.993Z,25.90
2018-06-03T11:48:00.650Z,26.00
2018-06-03T11:50:30.372Z,26.00
2018-06-03T11:53:02.847Z,26.00
2018-06-03T11:55:31.516Z,26.00
2018-06-03T11:58:41.761Z,26.10
2018-06-03T12:01:10.624Z,26.10
2018-06-03T12:03:39.312Z,26.00
2018-06-03T12:06:08.133Z,26.00
2018-06-03T12:08:36.893Z,26.00
2018-06-03T12:11:05.596Z,26.10
2018-06-03T12:16:02.583Z,26.30
2018-06-03T12:18:31.289Z,26.40
2018-06-03T12:21:00.014Z,26.60
2018-06-03T12:23:28.710Z,26.50
2018-06-03T12:26:03.517Z,26.60
2018-06-03T12:28:46.576Z,26.70
2018-06-03T12:31:15.367Z,26.80
2018-06-03T12:33:49.699Z,26.70
2018-06-03T12:36:18.427Z,26.40
2018-06-03T12:38:48.373Z,26.20
2018-06-03T12:41:17.122Z,26.30
2018-06-03T12:43:45.809Z,26.40
2018-06-03T12:46:33.838Z,26.40
2018-06-03T12:49:18.406Z,26.60
2018-06-03T12:51:47.074Z,27.00
2018-06-03T12:54:15.756Z,27.20
2018-06-03T12:59:53.018Z,27.80
2018-06-03T13:02:21.695Z,27.40
2018-06-03T13:04:50.374Z,27.50
2018-06-03T13:07:19.049Z,27.60
2018-06-03T13:09:47.727Z,27.90
2018-06-03T13:12:16.384Z,28.10
2018-06-03T13:14:46.213Z,28.10
2018-06-03T13:17:14.897Z,28.40
2018-06-03T13:20:01.582Z,28.40
2018-06-03T13:22:30.249Z,28.40
2018-06-03T13:24:58.934Z,28.30
2018-06-03T13:27:27.622Z,28.30
2018-06-03T13:29:56.284Z,28.40
2018-06-03T13:32:24.976Z,28.50
2018-06-03T13:34:53.701Z,28.40
2018-06-03T13:37:22.351Z,28.50
2018-06-03T13:39:51.161Z,28.60
2018-06-03T13:42:19.820Z,28.90
2018-06-03T13:44:48.547Z,28.60
2018-06-03T13:47:17.223Z,28.70
2018-06-03T13:49:45.861Z,28.80
2018-06-03T13:52:14.657Z,29.10
2018-06-03T13:57:16.318Z,29.20
2018-06-03T13:59:45.027Z,29.10
2018-06-03T14:02:13.713Z,29.20
2018-06-03T14:04:43.488Z,29.30
2018-06-03T14:07:13.226Z,29.40
2018-06-03T14:14:38.620Z,29.60
2018-06-03T14:17:07.381Z,29.60
2018-06-03T14:19:36.108Z,29.80
2018-06-03T14:22:12.245Z,29.70
2018-06-03T14:24:40.962Z,29.70
2018-06-03T14:27:09.645Z,29.70
2018-06-03T14:29:39.317Z,29.60
2018-06-03T14:32:11.991Z,29.50
2018-06-03T14:34:40.669Z,29.40
2018-06-03T14:37:09.310Z,29.40
2018-06-03T14:39:38.069Z,29.50
2018-06-03T14:42:06.780Z,29.50
2018-06-03T14:44:35.435Z,29.60
2018-06-03T14:47:04.084Z,29.40
2018-06-03T14:49:50.180Z,29.20
2018-06-03T14:55:21.980Z,28.80
2018-06-03T14:57:50.697Z,28.30
2018-06-03T15:00:19.332Z,28.00
2018-06-03T15:02:48.022Z,27.80
2018-06-03T15:05:16.704Z,27.60
2018-06-03T15:07:45.394Z,27.40
2018-06-03T15:10:14.082Z,27.20
2018-06-03T15:12:42.748Z,27.20
2018-06-03T15:15:15.070Z,27.40
2018-06-03T15:20:12.109Z,27.90
2018-06-03T15:22:40.794Z,28.20
2018-06-03T15:25:09.460Z,28.40
2018-06-03T15:27:44.919Z,28.70
2018-06-03T15:30:14.545Z,28.90
2018-06-03T15:32:43.192Z,29.10
2018-06-03T15:35:11.965Z,29.20
2018-06-03T15:37:46.711Z,29.50
2018-06-03T15:40:25.520Z,29.60
2018-06-03T15:42:54.233Z,29.60
2018-06-03T15:45:29.077Z,29.60
2018-06-03T15:47:59.242Z,29.30
2018-06-03T15:50:27.942Z,29.30
2018-06-03T15:53:03.738Z,29.20
2018-06-03T15:55:37.319Z,29.00
2018-06-03T16:01:00.434Z,29.10
2018-06-03T16:09:25.701Z,29.80
2018-06-03T16:20:23.531Z,30.40
2018-06-03T16:25:45.509Z,30.40
2018-06-03T16:28:16.531Z,30.60
2018-06-03T16:30:45.299Z,30.20
2018-06-03T16:33:13.945Z,30.50
2018-06-03T16:35:42.625Z,30.70
2018-06-03T16:38:11.257Z,30.70
2018-06-03T16:40:39.992Z,30.60
2018-06-03T16:43:08.651Z,30.70
2018-06-03T16:45:37.307Z,30.70
2018-06-03T16:48:06.108Z,30.20
2018-06-03T16:50:38.217Z,29.60
2018-06-03T16:53:06.877Z,29.60
2018-06-03T16:55:35.519Z,29.70
2018-06-03T16:58:04.194Z,29.50
2018-06-03T17:00:32.867Z,29.50
2018-06-03T17:03:01.538Z,29.50
2018-06-03T17:05:48.735Z,29.40
2018-06-03T17:08:17.357Z,29.60
2018-06-03T17:10:46.011Z,29.80
2018-06-03T17:13:14.666Z,29.60
2018-06-03T17:15:43.285Z,29.50
2018-06-03T17:18:28.171Z,29.50
2018-06-03T17:20:56.895Z,29.80
2018-06-03T17:23:25.534Z,29.50
2018-06-03T17:25:54.205Z,29.40
2018-06-03T17:28:22.814Z,29.60
2018-06-03T17:30:51.663Z,29.30
2018-06-03T17:33:30.992Z,28.70
2018-06-03T17:36:07.879Z,28.40
2018-06-03T17:38:36.503Z,27.80
2018-06-03T17:41:05.452Z,27.50
2018-06-03T17:43:34.113Z,27.10
2018-06-03T17:46:02.784Z,26.70
2018-06-03T17:48:31.475Z,26.50
2018-06-03T17:51:00.385Z,26.20
2018-06-03T17:53:29.037Z,26.00
2018-06-03T17:55:58.729Z,25.70
2018-06-03T17:58:27.360Z,25.60
2018-06-03T18:00:56.044Z,25.40
2018-06-03T18:03:24.780Z,25.30
2018-06-03T18:05:53.477Z,25.20
2018-06-03T18:08:22.189Z,25.10
2018-06-03T18:10:50.888Z,25.00
2018-06-03T18:13:26.624Z,24.90
2018-06-03T18:15:55.341Z,24.90
2018-06-03T18:18:29.797Z,24.90
2018-06-03T18:23:56.437Z,25.00
2018-06-03T18:26:25.107Z,24.90
2018-06-03T18:28:53.829Z,24.90
2018-06-03T18:31:30.181Z,24.90
2018-06-03T18:34:04.909Z,24.80
2018-06-03T18:39:19.940Z,24.70
2018-06-03T18:41:48.624Z,24.60
2018-06-03T18:44:17.293Z,24.60
2018-06-03T18:46:46.046Z,24.60
2018-06-03T18:49:14.690Z,24.40
2018-06-03T18:51:47.169Z,24.30
2018-06-03T18:54:17.664Z,24.30
2018-06-03T18:56:46.424Z,24.20
2018-06-03T18:59:15.193Z,24.10
2018-06-03T19:04:36.551Z,23.90
2018-06-03T19:07:06.313Z,23.90
2018-06-03T19:09:34.957Z,23.80
2018-06-03T19:12:03.737Z,23.60
2018-06-03T19:14:32.411Z,23.60
2018-06-03T19:17:10.540Z,23.60
2018-06-03T19:19:39.222Z,23.50
2018-06-03T19:24:42.455Z,23.30
2018-06-03T19:27:11.123Z,23.10
2018-06-03T19:29:39.797Z,22.90
2018-06-03T19:32:08.454Z,22.80
2018-06-03T19:34:37.097Z,22.70
2018-06-03T19:37:05.808Z,22.50
2018-06-03T19:39:34.478Z,22.40
2018-06-03T19:42:03.154Z,22.30
2018-06-03T19:44:31.965Z,22.20
2018-06-03T19:47:00.631Z,22.10
2018-06-03T19:49:29.313Z,22.00
2018-06-03T19:51:58.004Z,21.90
2018-06-03T19:54:26.660Z,21.70
2018-06-03T19:56:55.333Z,21.60
2018-06-03T19:59:23.984Z,21.40
2018-06-03T20:01:59.105Z,21.30
2018-06-03T20:04:27.769Z,21.20
2018-06-03T20:06:57.261Z,21.10
2018-06-03T20:09:25.928Z,21.00
2018-06-03T20:11:54.611Z,20.90
2018-06-03T20:17:01.099Z,20.80
2018-06-03T20:19:29.760Z,20.80
2018-06-03T20:22:17.710Z,20.70
2018-06-03T20:24:46.336Z,20.60
2018-06-03T20:27:15.017Z,20.50
2018-06-03T20:29:43.644Z,20.50
2018-06-03T20:32:12.312Z,20.40
2018-06-03T20:34:40.970Z,20.40
2018-06-03T20:37:09.624Z,20.40
2018-06-03T20:39:38.300Z,20.30
2018-06-03T20:42:06.965Z,20.30
2018-06-03T20:44:35.635Z,20.30
2018-06-03T20:47:04.302Z,20.30
2018-06-03T20:49:33.028Z,20.20
2018-06-03T20:52:01.716Z,20.10
2018-06-03T20:54:30.380Z,20.00
2018-06-03T20:56:59.020Z,19.90
2018-06-03T21:01:55.941Z,19.80
2018-06-03T21:04:24.624Z,19.70
2018-06-03T21:06:53.240Z,19.70
2018-06-03T21:09:21.873Z,19.60
2018-06-03T21:14:44.682Z,19.50
2018-06-03T21:17:13.334Z,19.40
2018-06-03T21:19:41.963Z,19.40
2018-06-03T21:22:10.615Z,19.30
2018-06-03T21:24:39.270Z,19.30
2018-06-03T21:27:07.918Z,19.40
2018-06-03T21:29:58.797Z,19.40
2018-06-03T21:32:27.442Z,19.30
2018-06-03T21:34:56.126Z,19.20
2018-06-03T21:37:24.770Z,19.20
2018-06-03T21:39:53.455Z,19.10
2018-06-03T21:42:22.112Z,19.10
2018-06-03T21:44:50.788Z,19.10
2018-06-03T21:47:32.438Z,19.10
2018-06-03T21:50:01.098Z,19.10
2018-06-03T21:52:29.722Z,19.10
2018-06-03T21:54:58.401Z,19.00
2018-06-03T21:57:27.021Z,19.00
2018-06-03T21:59:55.712Z,18.90
2018-06-03T22:02:24.427Z,18.80
2018-06-03T22:04:53.050Z,18.80
2018-06-03T22:07:21.720Z,18.70
2018-06-03T22:09:50.405Z,18.60
2018-06-03T22:12:19.043Z,18.60
2018-06-03T22:14:47.709Z,18.60
2018-06-03T22:17:34.301Z,18.50
2018-06-03T22:25:55.733Z,18.40
2018-06-03T22:28:24.408Z,18.40
2018-06-03T22:30:53.031Z,18.30
2018-06-03T22:33:21.698Z,18.30
2018-06-03T22:35:50.388Z,18.20
2018-06-03T22:38:19.052Z,18.20
2018-06-03T22:40:47.652Z,18.20
2018-06-03T22:43:16.330Z,18.20
2018-06-03T22:45:44.978Z,18.20
2018-06-03T22:48:13.623Z,18.10
2018-06-03T22:50:42.289Z,18.10
2018-06-03T22:53:10.972Z,18.00
2018-06-03T22:58:35.966Z,17.90
2018-06-03T23:01:04.649Z,17.80
2018-06-03T23:03:33.295Z,17.90
2018-06-03T23:06:07.932Z,17.90
2018-06-03T23:08:36.584Z,17.80
2018-06-03T23:11:05.214Z,17.80
2018-06-03T23:13:33.886Z,17.80
2018-06-03T23:16:02.552Z,17.70
2018-06-03T23:18:31.216Z,17.70
2018-06-03T23:20:59.874Z,17.70
2018-06-03T23:23:28.512Z,17.60
2018-06-03T23:26:09.886Z,17.60
2018-06-03T23:28:38.580Z,17.60
2018-06-03T23:31:07.250Z,17.60
2018-06-03T23:33:35.919Z,17.50
2018-06-03T23:36:04.545Z,17.50
2018-06-03T23:38:33.264Z,17.50
2018-06-03T23:41:01.906Z,17.50
2018-06-03T23:43:30.557Z,17.50
2018-06-03T23:45:59.250Z,17.50
2018-06-03T23:48:34.374Z,17.40
2018-06-03T23:51:03.058Z,17.40
2018-06-03T23:53:31.768Z,17.50
2018-06-03T23:56:00.417Z,17.50
2018-06-03T23:58:29.065Z,17.50
